sensor_id;sensor_type;location;lat;lon;timestamp;P1;durP1;ratioP1;P2;durP2;ratioP2
635;SDS011;302;50.206;8.196;2023-02-22T00:00:36;34.70;;;30.80;;
635;SDS011;302;50.206;8.196;2023-02-22T00:03:08;37.28;;;31.63;;
635;SDS011;302;50.206;8.196;2023-02-22T00:05:34;35.95;;;31.55;;
635;SDS011;302;50.206;8.196;2023-02-22T00:07:59;35.70;;;31.90;;
635;SDS011;302;50.206;8.196;2023-02-22T00:10:25;40.83;;;33.67;;
635;SDS011;302;50.206;8.196;2023-02-22T00:12:51;37.73;;;31.10;;
635;SDS011;302;50.206;8.196;2023-02-22T00:15:17;37.67;;;32.55;;
635;SDS011;302;50.206;8.196;2023-02-22T00:17:42;36.13;;;32.20;;
635;SDS011;302;50.206;8.196;2023-02-22T00:20:08;37.53;;;33.50;;
635;SDS011;302;50.206;8.196;2023-02-22T00:22:34;35.55;;;31.40;;
635;SDS011;302;50.206;8.196;2023-02-22T00:24:59;38.17;;;32.57;;
635;SDS011;302;50.206;8.196;2023-02-22T00:27:24;37.60;;;33.00;;
635;SDS011;302;50.206;8.196;2023-02-22T00:29:49;39.03;;;34.90;;
635;SDS011;302;50.206;8.196;2023-02-22T00:32:15;41.07;;;35.33;;
635;SDS011;302;50.206;8.196;2023-02-22T00:34:40;41.87;;;37.57;;
635;SDS011;302;50.206;8.196;2023-02-22T00:37:07;41.13;;;36.70;;
635;SDS011;302;50.206;8.196;2023-02-22T00:39:32;42.10;;;37.57;;
635;SDS011;302;50.206;8.196;2023-02-22T00:41:57;41.43;;;37.13;;
635;SDS011;302;50.206;8.196;2023-02-22T00:44:22;40.80;;;36.30;;
635;SDS011;302;50.206;8.196;2023-02-22T00:46:48;37.97;;;33.90;;
635;SDS011;302;50.206;8.196;2023-02-22T00:49:14;38.33;;;34.07;;
635;SDS011;302;50.206;8.196;2023-02-22T00:51:39;37.50;;;33.50;;
635;SDS011;302;50.206;8.196;2023-02-22T00:54:04;37.57;;;33.63;;
635;SDS011;302;50.206;8.196;2023-02-22T00:56:31;35.70;;;32.15;;
635;SDS011;302;50.206;8.196;2023-02-22T00:58:56;35.42;;;31.65;;
635;SDS011;302;50.206;8.196;2023-02-22T01:01:21;36.83;;;32.93;;
635;SDS011;302;50.206;8.196;2023-02-22T01:03:47;37.58;;;33.60;;
635;SDS011;302;50.206;8.196;2023-02-22T01:06:13;36.17;;;32.40;;
635;SDS011;302;50.206;8.196;2023-02-22T01:08:38;37.90;;;32.23;;
635;SDS011;302;50.206;8.196;2023-02-22T01:11:07;35.60;;;31.63;;
635;SDS011;302;50.206;8.196;2023-02-22T01:13:32;33.50;;;29.90;;
635;SDS011;302;50.206;8.196;2023-02-22T01:15:58;35.33;;;29.85;;
635;SDS011;302;50.206;8.196;2023-02-22T01:18:24;34.80;;;30.40;;
635;SDS011;302;50.206;8.196;2023-02-22T01:20:49;32.20;;;28.37;;
635;SDS011;302;50.206;8.196;2023-02-22T01:23:15;34.05;;;30.45;;
635;SDS011;302;50.206;8.196;2023-02-22T01:25:41;34.95;;;30.77;;
635;SDS011;302;50.206;8.196;2023-02-22T01:28:07;38.65;;;32.70;;
635;SDS011;302;50.206;8.196;2023-02-22T01:30:33;34.00;;;30.17;;
635;SDS011;302;50.206;8.196;2023-02-22T01:32:58;33.50;;;29.83;;
635;SDS011;302;50.206;8.196;2023-02-22T01:35:25;35.00;;;30.00;;
635;SDS011;302;50.206;8.196;2023-02-22T01:37:51;33.97;;;30.35;;
635;SDS011;302;50.206;8.196;2023-02-22T01:40:18;34.65;;;30.85;;
635;SDS011;302;50.206;8.196;2023-02-22T01:42:46;32.85;;;29.35;;
635;SDS011;302;50.206;8.196;2023-02-22T01:47:55;35.95;;;30.20;;
635;SDS011;302;50.206;8.196;2023-02-22T01:50:21;35.97;;;32.33;;
635;SDS011;302;50.206;8.196;2023-02-22T01:52:46;33.83;;;30.23;;
635;SDS011;302;50.206;8.196;2023-02-22T01:55:12;36.47;;;32.57;;
635;SDS011;302;50.206;8.196;2023-02-22T01:57:37;33.87;;;30.27;;
635;SDS011;302;50.206;8.196;2023-02-22T02:00:04;33.50;;;30.00;;
635;SDS011;302;50.206;8.196;2023-02-22T02:02:36;34.72;;;31.25;;
635;SDS011;302;50.206;8.196;2023-02-22T02:05:04;35.97;;;30.05;;
635;SDS011;302;50.206;8.196;2023-02-22T02:07:32;32.38;;;28.95;;
635;SDS011;302;50.206;8.196;2023-02-22T02:10:05;32.90;;;28.80;;
635;SDS011;302;50.206;8.196;2023-02-22T02:12:32;34.00;;;29.95;;
635;SDS011;302;50.206;8.196;2023-02-22T02:17:41;33.53;;;29.90;;
635;SDS011;302;50.206;8.196;2023-02-22T02:20:13;35.93;;;29.90;;
635;SDS011;302;50.206;8.196;2023-02-22T02:35:46;32.67;;;29.17;;
635;SDS011;302;50.206;8.196;2023-02-22T02:38:16;32.72;;;29.30;;
635;SDS011;302;50.206;8.196;2023-02-22T02:43:45;37.55;;;30.10;;
635;SDS011;302;50.206;8.196;2023-02-22T02:46:19;35.72;;;30.05;;
635;SDS011;302;50.206;8.196;2023-02-22T02:48:48;31.95;;;28.67;;
635;SDS011;302;50.206;8.196;2023-02-22T02:51:15;33.50;;;29.70;;
635;SDS011;302;50.206;8.196;2023-02-22T02:53:42;34.33;;;29.77;;
635;SDS011;302;50.206;8.196;2023-02-22T02:56:08;36.58;;;31.05;;
635;SDS011;302;50.206;8.196;2023-02-22T02:58:41;37.63;;;30.77;;
635;SDS011;302;50.206;8.196;2023-02-22T03:01:07;42.65;;;31.42;;
635;SDS011;302;50.206;8.196;2023-02-22T03:08:42;37.40;;;32.08;;
635;SDS011;302;50.206;8.196;2023-02-22T03:11:27;39.80;;;33.63;;
635;SDS011;302;50.206;8.196;2023-02-22T03:13:59;38.42;;;31.48;;
635;SDS011;302;50.206;8.196;2023-02-22T03:21:44;42.28;;;34.20;;
635;SDS011;302;50.206;8.196;2023-02-22T03:24:19;38.72;;;31.85;;
635;SDS011;302;50.206;8.196;2023-02-22T03:26:53;38.35;;;32.10;;
635;SDS011;302;50.206;8.196;2023-02-22T03:29:21;34.78;;;30.98;;
635;SDS011;302;50.206;8.196;2023-02-22T03:31:49;37.30;;;31.40;;
635;SDS011;302;50.206;8.196;2023-02-22T03:34:18;38.28;;;31.90;;
635;SDS011;302;50.206;8.196;2023-02-22T03:36:46;44.67;;;34.63;;
635;SDS011;302;50.206;8.196;2023-02-22T03:39:13;41.05;;;34.17;;
635;SDS011;302;50.206;8.196;2023-02-22T03:41:42;43.63;;;34.30;;
635;SDS011;302;50.206;8.196;2023-02-22T03:44:09;42.40;;;33.95;;
635;SDS011;302;50.206;8.196;2023-02-22T03:46:36;42.42;;;34.90;;
635;SDS011;302;50.206;8.196;2023-02-22T03:51:34;46.47;;;34.92;;
635;SDS011;302;50.206;8.196;2023-02-22T03:54:00;39.77;;;33.27;;
635;SDS011;302;50.206;8.196;2023-02-22T03:56:27;43.23;;;33.57;;
635;SDS011;302;50.206;8.196;2023-02-22T03:58:59;44.15;;;34.20;;
635;SDS011;302;50.206;8.196;2023-02-22T04:01:24;41.47;;;32.13;;
635;SDS011;302;50.206;8.196;2023-02-22T04:03:49;47.10;;;33.43;;
635;SDS011;302;50.206;8.196;2023-02-22T04:06:15;37.13;;;30.63;;
635;SDS011;302;50.206;8.196;2023-02-22T04:08:40;37.10;;;31.50;;
635;SDS011;302;50.206;8.196;2023-02-22T04:11:05;39.40;;;31.93;;
635;SDS011;302;50.206;8.196;2023-02-22T04:13:31;38.30;;;31.67;;
635;SDS011;302;50.206;8.196;2023-02-22T04:15:56;37.47;;;30.43;;
635;SDS011;302;50.206;8.196;2023-02-22T04:18:21;34.83;;;29.30;;
635;SDS011;302;50.206;8.196;2023-02-22T04:20:47;39.70;;;28.83;;
635;SDS011;302;50.206;8.196;2023-02-22T04:23:12;33.80;;;28.00;;
635;SDS011;302;50.206;8.196;2023-02-22T04:25:37;34.60;;;27.30;;
635;SDS011;302;50.206;8.196;2023-02-22T04:28:02;30.77;;;26.63;;
635;SDS011;302;50.206;8.196;2023-02-22T04:30:27;29.40;;;26.20;;
635;SDS011;302;50.206;8.196;2023-02-22T04:32:54;29.40;;;24.42;;
635;SDS011;302;50.206;8.196;2023-02-22T04:35:19;28.37;;;25.17;;
635;SDS011;302;50.206;8.196;2023-02-22T04:37:44;32.87;;;24.13;;
635;SDS011;302;50.206;8.196;2023-02-22T04:40:09;28.03;;;24.97;;
635;SDS011;302;50.206;8.196;2023-02-22T04:42:35;29.90;;;24.63;;
635;SDS011;302;50.206;8.196;2023-02-22T04:45:01;27.87;;;22.30;;
635;SDS011;302;50.206;8.196;2023-02-22T04:47:26;30.10;;;23.03;;
635;SDS011;302;50.206;8.196;2023-02-22T04:49:51;26.13;;;21.85;;
635;SDS011;302;50.206;8.196;2023-02-22T04:52:16;26.25;;;22.25;;
635;SDS011;302;50.206;8.196;2023-02-22T04:54:41;26.50;;;21.13;;
635;SDS011;302;50.206;8.196;2023-02-22T04:57:07;25.37;;;21.57;;
635;SDS011;302;50.206;8.196;2023-02-22T04:59:32;24.10;;;21.50;;
635;SDS011;302;50.206;8.196;2023-02-22T05:01:57;26.88;;;21.52;;
635;SDS011;302;50.206;8.196;2023-02-22T05:04:24;24.50;;;21.38;;
635;SDS011;302;50.206;8.196;2023-02-22T05:06:49;28.40;;;23.02;;
635;SDS011;302;50.206;8.196;2023-02-22T05:09:14;28.73;;;24.17;;
635;SDS011;302;50.206;8.196;2023-02-22T05:11:40;31.43;;;24.73;;
635;SDS011;302;50.206;8.196;2023-02-22T05:14:05;29.60;;;24.57;;
635;SDS011;302;50.206;8.196;2023-02-22T05:16:30;31.90;;;25.27;;
635;SDS011;302;50.206;8.196;2023-02-22T05:18:55;33.00;;;25.37;;
635;SDS011;302;50.206;8.196;2023-02-22T05:21:21;26.57;;;23.27;;
635;SDS011;302;50.206;8.196;2023-02-22T05:23:46;28.03;;;24.30;;
635;SDS011;302;50.206;8.196;2023-02-22T05:26:11;30.70;;;23.37;;
635;SDS011;302;50.206;8.196;2023-02-22T05:28:36;33.13;;;24.07;;
635;SDS011;302;50.206;8.196;2023-02-22T05:31:01;28.43;;;24.00;;
635;SDS011;302;50.206;8.196;2023-02-22T05:33:27;29.02;;;22.02;;
635;SDS011;302;50.206;8.196;2023-02-22T05:35:52;27.38;;;22.23;;
635;SDS011;302;50.206;8.196;2023-02-22T05:38:19;26.27;;;22.05;;
635;SDS011;302;50.206;8.196;2023-02-22T05:40:45;26.33;;;20.70;;
635;SDS011;302;50.206;8.196;2023-02-22T05:43:10;29.17;;;20.83;;
635;SDS011;302;50.206;8.196;2023-02-22T05:45:35;23.92;;;21.30;;
635;SDS011;302;50.206;8.196;2023-02-22T05:48:00;23.27;;;19.43;;
635;SDS011;302;50.206;8.196;2023-02-22T05:50:26;21.80;;;18.07;;
635;SDS011;302;50.206;8.196;2023-02-22T05:52:51;24.30;;;20.63;;
635;SDS011;302;50.206;8.196;2023-02-22T05:55:18;21.80;;;18.50;;
635;SDS011;302;50.206;8.196;2023-02-22T05:57:44;24.63;;;18.95;;
635;SDS011;302;50.206;8.196;2023-02-22T06:00:10;23.60;;;18.77;;
635;SDS011;302;50.206;8.196;2023-02-22T06:02:38;21.98;;;18.75;;
635;SDS011;302;50.206;8.196;2023-02-22T06:05:03;22.17;;;18.35;;
635;SDS011;302;50.206;8.196;2023-02-22T06:07:29;21.53;;;18.80;;
635;SDS011;302;50.206;8.196;2023-02-22T06:09:54;25.57;;;19.63;;
635;SDS011;302;50.206;8.196;2023-02-22T06:12:19;21.35;;;18.25;;
635;SDS011;302;50.206;8.196;2023-02-22T06:14:44;24.50;;;17.80;;
635;SDS011;302;50.206;8.196;2023-02-22T06:17:10;19.92;;;16.10;;
635;SDS011;302;50.206;8.196;2023-02-22T06:19:36;22.97;;;17.30;;
635;SDS011;302;50.206;8.196;2023-02-22T06:22:01;20.83;;;17.00;;
635;SDS011;302;50.206;8.196;2023-02-22T06:24:27;18.60;;;16.17;;
635;SDS011;302;50.206;8.196;2023-02-22T06:26:55;18.80;;;16.15;;
635;SDS011;302;50.206;8.196;2023-02-22T06:29:21;20.45;;;16.23;;
635;SDS011;302;50.206;8.196;2023-02-22T06:31:46;21.90;;;16.40;;
635;SDS011;302;50.206;8.196;2023-02-22T06:34:11;20.58;;;17.58;;
635;SDS011;302;50.206;8.196;2023-02-22T06:36:36;23.30;;;17.90;;
635;SDS011;302;50.206;8.196;2023-02-22T06:39:02;18.40;;;16.50;;
635;SDS011;302;50.206;8.196;2023-02-22T06:41:27;19.60;;;16.03;;
635;SDS011;302;50.206;8.196;2023-02-22T06:43:52;18.90;;;15.07;;
635;SDS011;302;50.206;8.196;2023-02-22T06:46:17;17.73;;;15.32;;
635;SDS011;302;50.206;8.196;2023-02-22T06:48:43;18.67;;;15.93;;
635;SDS011;302;50.206;8.196;2023-02-22T06:51:08;18.20;;;14.57;;
635;SDS011;302;50.206;8.196;2023-02-22T06:53:34;20.17;;;15.90;;
635;SDS011;302;50.206;8.196;2023-02-22T06:55:59;22.33;;;16.30;;
635;SDS011;302;50.206;8.196;2023-02-22T06:58:24;21.30;;;16.87;;
635;SDS011;302;50.206;8.196;2023-02-22T07:00:51;21.10;;;17.58;;
635;SDS011;302;50.206;8.196;2023-02-22T07:03:16;23.70;;;17.33;;
635;SDS011;302;50.206;8.196;2023-02-22T07:05:42;20.40;;;16.20;;
635;SDS011;302;50.206;8.196;2023-02-22T07:08:07;20.13;;;16.30;;
635;SDS011;302;50.206;8.196;2023-02-22T07:10:33;21.20;;;17.30;;
635;SDS011;302;50.206;8.196;2023-02-22T07:12:59;20.08;;;15.18;;
635;SDS011;302;50.206;8.196;2023-02-22T07:15:25;24.37;;;19.87;;
635;SDS011;302;50.206;8.196;2023-02-22T07:17:51;32.40;;;25.58;;
635;SDS011;302;50.206;8.196;2023-02-22T07:20:17;32.97;;;25.20;;
635;SDS011;302;50.206;8.196;2023-02-22T07:22:42;30.40;;;26.20;;
635;SDS011;302;50.206;8.196;2023-02-22T07:25:07;29.83;;;26.23;;
635;SDS011;302;50.206;8.196;2023-02-22T07:27:34;29.35;;;25.73;;
635;SDS011;302;50.206;8.196;2023-02-22T07:30:00;28.15;;;24.98;;
635;SDS011;302;50.206;8.196;2023-02-22T07:32:25;25.50;;;22.80;;
635;SDS011;302;50.206;8.196;2023-02-22T07:34:50;29.63;;;21.07;;
635;SDS011;302;50.206;8.196;2023-02-22T07:37:15;22.67;;;18.60;;
635;SDS011;302;50.206;8.196;2023-02-22T07:39:41;23.70;;;20.33;;
635;SDS011;302;50.206;8.196;2023-02-22T07:42:07;21.58;;;19.27;;
635;SDS011;302;50.206;8.196;2023-02-22T07:44:33;23.33;;;20.37;;
635;SDS011;302;50.206;8.196;2023-02-22T07:46:58;25.40;;;21.50;;
635;SDS011;302;50.206;8.196;2023-02-22T07:49:23;23.93;;;21.27;;
635;SDS011;302;50.206;8.196;2023-02-22T07:51:48;23.50;;;20.13;;
635;SDS011;302;50.206;8.196;2023-02-22T07:54:13;22.60;;;20.27;;
635;SDS011;302;50.206;8.196;2023-02-22T07:56:45;20.90;;;18.67;;
635;SDS011;302;50.206;8.196;2023-02-22T07:59:10;19.75;;;16.60;;
635;SDS011;302;50.206;8.196;2023-02-22T08:01:36;17.37;;;15.43;;
635;SDS011;302;50.206;8.196;2023-02-22T08:04:01;18.27;;;14.63;;
635;SDS011;302;50.206;8.196;2023-02-22T08:06:26;20.00;;;15.07;;
635;SDS011;302;50.206;8.196;2023-02-22T08:08:52;20.57;;;15.77;;
635;SDS011;302;50.206;8.196;2023-02-22T08:11:17;20.43;;;16.67;;
635;SDS011;302;50.206;8.196;2023-02-22T08:13:42;21.43;;;17.30;;
635;SDS011;302;50.206;8.196;2023-02-22T08:16:07;20.52;;;16.92;;
635;SDS011;302;50.206;8.196;2023-02-22T08:18:33;22.17;;;18.47;;
635;SDS011;302;50.206;8.196;2023-02-22T08:20:58;20.63;;;16.83;;
635;SDS011;302;50.206;8.196;2023-02-22T08:23:23;19.87;;;17.47;;
635;SDS011;302;50.206;8.196;2023-02-22T08:25:49;19.38;;;17.35;;
635;SDS011;302;50.206;8.196;2023-02-22T08:28:15;23.67;;;20.57;;
635;SDS011;302;50.206;8.196;2023-02-22T08:30:41;21.05;;;18.60;;
635;SDS011;302;50.206;8.196;2023-02-22T08:33:07;21.93;;;19.23;;
635;SDS011;302;50.206;8.196;2023-02-22T08:35:33;22.47;;;20.00;;
635;SDS011;302;50.206;8.196;2023-02-22T08:37:59;22.90;;;20.47;;
635;SDS011;302;50.206;8.196;2023-02-22T08:40:25;24.65;;;20.48;;
635;SDS011;302;50.206;8.196;2023-02-22T08:42:51;25.58;;;21.50;;
635;SDS011;302;50.206;8.196;2023-02-22T08:45:17;25.00;;;22.07;;
635;SDS011;302;50.206;8.196;2023-02-22T08:47:42;21.97;;;19.60;;
635;SDS011;302;50.206;8.196;2023-02-22T08:50:08;20.63;;;18.53;;
635;SDS011;302;50.206;8.196;2023-02-22T08:52:33;23.95;;;20.17;;
635;SDS011;302;50.206;8.196;2023-02-22T08:54:59;21.67;;;19.13;;
635;SDS011;302;50.206;8.196;2023-02-22T08:57:24;20.03;;;17.53;;
635;SDS011;302;50.206;8.196;2023-02-22T08:59:49;21.97;;;18.07;;
635;SDS011;302;50.206;8.196;2023-02-22T09:02:16;19.80;;;17.23;;
635;SDS011;302;50.206;8.196;2023-02-22T09:04:41;19.25;;;17.00;;
635;SDS011;302;50.206;8.196;2023-02-22T09:07:06;18.47;;;16.60;;
635;SDS011;302;50.206;8.196;2023-02-22T09:09:32;21.40;;;17.80;;
635;SDS011;302;50.206;8.196;2023-02-22T09:11:57;18.65;;;16.80;;
635;SDS011;302;50.206;8.196;2023-02-22T09:14:22;19.03;;;16.17;;
635;SDS011;302;50.206;8.196;2023-02-22T09:16:47;18.30;;;16.50;;
635;SDS011;302;50.206;8.196;2023-02-22T09:19:12;19.75;;;17.00;;
635;SDS011;302;50.206;8.196;2023-02-22T09:21:37;19.40;;;17.37;;
635;SDS011;302;50.206;8.196;2023-02-22T09:24:04;20.20;;;18.15;;
635;SDS011;302;50.206;8.196;2023-02-22T09:26:33;20.50;;;18.33;;
635;SDS011;302;50.206;8.196;2023-02-22T09:28:58;19.60;;;16.93;;
635;SDS011;302;50.206;8.196;2023-02-22T09:31:23;18.48;;;16.30;;
635;SDS011;302;50.206;8.196;2023-02-22T09:33:48;19.20;;;17.30;;
635;SDS011;302;50.206;8.196;2023-02-22T09:36:13;18.63;;;16.40;;
635;SDS011;302;50.206;8.196;2023-02-22T09:38:39;18.10;;;16.27;;
635;SDS011;302;50.206;8.196;2023-02-22T09:41:22;20.23;;;18.13;;
635;SDS011;302;50.206;8.196;2023-02-22T09:46:34;19.33;;;17.33;;
635;SDS011;302;50.206;8.196;2023-02-22T09:49:06;20.15;;;18.00;;
635;SDS011;302;50.206;8.196;2023-02-22T09:51:37;20.85;;;18.40;;
635;SDS011;302;50.206;8.196;2023-02-22T09:54:05;20.77;;;18.58;;
635;SDS011;302;50.206;8.196;2023-02-22T09:56:33;24.05;;;18.35;;
635;SDS011;302;50.206;8.196;2023-02-22T09:59:00;20.97;;;18.50;;
635;SDS011;302;50.206;8.196;2023-02-22T10:01:36;21.35;;;17.48;;
635;SDS011;302;50.206;8.196;2023-02-22T10:09:19;19.90;;;17.88;;
635;SDS011;302;50.206;8.196;2023-02-22T10:11:48;21.23;;;17.25;;
635;SDS011;302;50.206;8.196;2023-02-22T10:14:25;19.40;;;17.40;;
635;SDS011;302;50.206;8.196;2023-02-22T10:16:59;19.90;;;17.80;;
635;SDS011;302;50.206;8.196;2023-02-22T10:19:32;21.00;;;17.98;;
635;SDS011;302;50.206;8.196;2023-02-22T10:22:10;23.63;;;18.50;;
635;SDS011;302;50.206;8.196;2023-02-22T10:27:26;20.98;;;17.70;;
635;SDS011;302;50.206;8.196;2023-02-22T10:30:04;20.77;;;18.60;;
635;SDS011;302;50.206;8.196;2023-02-22T10:32:31;19.80;;;17.80;;
635;SDS011;302;50.206;8.196;2023-02-22T10:34:59;23.00;;;19.05;;
635;SDS011;302;50.206;8.196;2023-02-22T10:37:30;19.60;;;17.60;;
635;SDS011;302;50.206;8.196;2023-02-22T10:40:12;19.20;;;17.20;;
635;SDS011;302;50.206;8.196;2023-02-22T10:42:41;18.67;;;16.83;;
635;SDS011;302;50.206;8.196;2023-02-22T10:45:13;20.40;;;18.37;;
635;SDS011;302;50.206;8.196;2023-02-22T10:47:41;20.45;;;18.30;;
635;SDS011;302;50.206;8.196;2023-02-22T10:50:06;19.23;;;17.23;;
635;SDS011;302;50.206;8.196;2023-02-22T10:52:32;22.60;;;19.17;;
635;SDS011;302;50.206;8.196;2023-02-22T10:54:58;21.97;;;19.37;;
635;SDS011;302;50.206;8.196;2023-02-22T10:57:25;21.55;;;19.25;;
635;SDS011;302;50.206;8.196;2023-02-22T10:59:50;20.90;;;18.90;;
635;SDS011;302;50.206;8.196;2023-02-22T11:04:54;22.10;;;19.75;;
635;SDS011;302;50.206;8.196;2023-02-22T11:09:58;22.83;;;20.35;;
635;SDS011;302;50.206;8.196;2023-02-22T11:12:56;22.30;;;19.90;;
635;SDS011;302;50.206;8.196;2023-02-22T11:17:40;22.45;;;20.00;;
635;SDS011;302;50.206;8.196;2023-02-22T11:20:05;26.73;;;22.33;;
635;SDS011;302;50.206;8.196;2023-02-22T11:22:36;23.92;;;21.20;;
635;SDS011;302;50.206;8.196;2023-02-22T11:25:03;22.33;;;19.92;;
635;SDS011;302;50.206;8.196;2023-02-22T11:30:07;22.55;;;19.60;;
635;SDS011;302;50.206;8.196;2023-02-22T11:32:34;18.95;;;17.05;;
635;SDS011;302;50.206;8.196;2023-02-22T11:35:48;19.60;;;17.35;;
635;SDS011;302;50.206;8.196;2023-02-22T11:37:45;20.05;;;17.80;;
635;SDS011;302;50.206;8.196;2023-02-22T11:40:18;21.30;;;17.63;;
635;SDS011;302;50.206;8.196;2023-02-22T11:43:04;18.00;;;16.20;;
635;SDS011;302;50.206;8.196;2023-02-22T11:45:31;19.58;;;17.58;;
635;SDS011;302;50.206;8.196;2023-02-22T11:47:57;20.10;;;18.10;;
635;SDS011;302;50.206;8.196;2023-02-22T11:50:31;19.27;;;17.38;;
635;SDS011;302;50.206;8.196;2023-02-22T11:53:04;20.23;;;18.23;;
635;SDS011;302;50.206;8.196;2023-02-22T11:55:38;19.00;;;17.10;;
635;SDS011;302;50.206;8.196;2023-02-22T11:58:22;20.98;;;18.88;;
635;SDS011;302;50.206;8.196;2023-02-22T12:01:01;18.58;;;16.73;;
635;SDS011;302;50.206;8.196;2023-02-22T12:03:53;19.92;;;18.00;;
635;SDS011;302;50.206;8.196;2023-02-22T12:06:26;20.50;;;17.30;;
635;SDS011;302;50.206;8.196;2023-02-22T12:09:07;20.50;;;18.40;;
635;SDS011;302;50.206;8.196;2023-02-22T12:14:43;19.88;;;17.88;;
635;SDS011;302;50.206;8.196;2023-02-22T12:20:00;18.02;;;16.23;;
635;SDS011;302;50.206;8.196;2023-02-22T12:22:31;19.50;;;16.88;;
635;SDS011;302;50.206;8.196;2023-02-22T12:25:01;20.45;;;18.40;;
635;SDS011;302;50.206;8.196;2023-02-22T12:27:29;20.42;;;17.33;;
635;SDS011;302;50.206;8.196;2023-02-22T12:30:05;19.35;;;17.35;;
635;SDS011;302;50.206;8.196;2023-02-22T12:33:05;18.75;;;16.70;;
635;SDS011;302;50.206;8.196;2023-02-22T12:35:43;18.65;;;16.80;;
635;SDS011;302;50.206;8.196;2023-02-22T12:38:14;17.85;;;16.15;;
635;SDS011;302;50.206;8.196;2023-02-22T12:45:49;15.68;;;14.07;;
635;SDS011;302;50.206;8.196;2023-02-22T12:51:11;15.38;;;13.88;;
635;SDS011;302;50.206;8.196;2023-02-22T12:53:38;18.08;;;15.05;;
635;SDS011;302;50.206;8.196;2023-02-22T12:58:38;19.00;;;17.20;;
635;SDS011;302;50.206;8.196;2023-02-22T13:01:20;20.35;;;17.48;;
635;SDS011;302;50.206;8.196;2023-02-22T13:03:46;20.23;;;18.17;;
635;SDS011;302;50.206;8.196;2023-02-22T13:06:16;16.73;;;15.02;;
635;SDS011;302;50.206;8.196;2023-02-22T13:14:10;18.48;;;15.60;;
635;SDS011;302;50.206;8.196;2023-02-22T13:16:58;17.52;;;15.73;;
635;SDS011;302;50.206;8.196;2023-02-22T13:19:27;18.48;;;16.45;;
635;SDS011;302;50.206;8.196;2023-02-22T13:21:56;21.23;;;15.55;;
635;SDS011;302;50.206;8.196;2023-02-22T13:26:57;16.73;;;15.13;;
635;SDS011;302;50.206;8.196;2023-02-22T13:29:24;19.77;;;17.63;;
635;SDS011;302;50.206;8.196;2023-02-22T13:34:24;19.50;;;17.48;;
635;SDS011;302;50.206;8.196;2023-02-22T13:42:03;20.90;;;18.77;;
635;SDS011;302;50.206;8.196;2023-02-22T13:52:16;21.05;;;18.52;;
635;SDS011;302;50.206;8.196;2023-02-22T13:54:45;19.70;;;17.60;;
635;SDS011;302;50.206;8.196;2023-02-22T13:59:43;18.50;;;16.67;;
635;SDS011;302;50.206;8.196;2023-02-22T14:02:30;20.38;;;18.30;;
635;SDS011;302;50.206;8.196;2023-02-22T14:04:55;24.00;;;21.38;;
635;SDS011;302;50.206;8.196;2023-02-22T14:09:47;22.00;;;19.90;;
635;SDS011;302;50.206;8.196;2023-02-22T14:12:39;22.25;;;19.90;;
635;SDS011;302;50.206;8.196;2023-02-22T14:17:35;22.85;;;20.58;;
635;SDS011;302;50.206;8.196;2023-02-22T14:22:43;19.58;;;17.50;;
635;SDS011;302;50.206;8.196;2023-02-22T14:27:53;19.20;;;17.40;;
635;SDS011;302;50.206;8.196;2023-02-22T14:30:25;21.00;;;18.90;;
635;SDS011;302;50.206;8.196;2023-02-22T14:32:51;19.55;;;17.27;;
635;SDS011;302;50.206;8.196;2023-02-22T14:35:16;22.10;;;19.10;;
635;SDS011;302;50.206;8.196;2023-02-22T14:37:42;18.53;;;16.73;;
635;SDS011;302;50.206;8.196;2023-02-22T14:42:43;18.48;;;16.67;;
635;SDS011;302;50.206;8.196;2023-02-22T14:47:45;20.25;;;18.25;;
635;SDS011;302;50.206;8.196;2023-02-22T14:50:15;20.48;;;18.42;;
635;SDS011;302;50.206;8.196;2023-02-22T14:52:41;23.50;;;18.55;;
635;SDS011;302;50.206;8.196;2023-02-22T14:55:12;22.37;;;19.97;;
635;SDS011;302;50.206;8.196;2023-02-22T14:57:43;20.95;;;18.00;;
635;SDS011;302;50.206;8.196;2023-02-22T15:00:13;19.05;;;17.25;;
635;SDS011;302;50.206;8.196;2023-02-22T15:02:47;20.92;;;18.83;;
635;SDS011;302;50.206;8.196;2023-02-22T15:05:13;20.50;;;18.40;;
635;SDS011;302;50.206;8.196;2023-02-22T15:07:38;21.15;;;18.95;;
635;SDS011;302;50.206;8.196;2023-02-22T15:13:18;21.85;;;19.42;;
635;SDS011;302;50.206;8.196;2023-02-22T15:15:43;22.73;;;20.35;;
635;SDS011;302;50.206;8.196;2023-02-22T15:18:20;21.65;;;19.20;;
635;SDS011;302;50.206;8.196;2023-02-22T15:20:46;23.17;;;20.73;;
635;SDS011;302;50.206;8.196;2023-02-22T15:23:16;22.42;;;20.10;;
635;SDS011;302;50.206;8.196;2023-02-22T15:25:47;21.95;;;19.65;;
635;SDS011;302;50.206;8.196;2023-02-22T15:28:13;22.92;;;20.60;;
635;SDS011;302;50.206;8.196;2023-02-22T15:30:39;22.80;;;20.60;;
635;SDS011;302;50.206;8.196;2023-02-22T15:33:14;22.57;;;20.13;;
635;SDS011;302;50.206;8.196;2023-02-22T15:35:40;23.45;;;20.73;;
635;SDS011;302;50.206;8.196;2023-02-22T15:38:16;21.30;;;19.20;;
635;SDS011;302;50.206;8.196;2023-02-22T15:40:42;23.98;;;21.63;;
635;SDS011;302;50.206;8.196;2023-02-22T15:43:19;24.45;;;21.92;;
635;SDS011;302;50.206;8.196;2023-02-22T15:45:48;23.42;;;20.92;;
635;SDS011;302;50.206;8.196;2023-02-22T15:48:14;22.77;;;20.38;;
635;SDS011;302;50.206;8.196;2023-02-22T15:50:44;22.03;;;19.93;;
635;SDS011;302;50.206;8.196;2023-02-22T15:53:25;24.52;;;22.10;;
635;SDS011;302;50.206;8.196;2023-02-22T15:55:54;53.30;;;46.13;;
635;SDS011;302;50.206;8.196;2023-02-22T15:58:21;60.30;;;48.70;;
635;SDS011;302;50.206;8.196;2023-02-22T16:00:48;28.55;;;25.65;;
635;SDS011;302;50.206;8.196;2023-02-22T16:03:15;27.25;;;23.40;;
635;SDS011;302;50.206;8.196;2023-02-22T16:05:43;29.60;;;23.35;;
635;SDS011;302;50.206;8.196;2023-02-22T16:08:51;25.75;;;23.23;;
635;SDS011;302;50.206;8.196;2023-02-22T16:11:05;26.45;;;23.55;;
635;SDS011;302;50.206;8.196;2023-02-22T16:13:37;27.80;;;25.00;;
635;SDS011;302;50.206;8.196;2023-02-22T16:16:19;25.73;;;23.27;;
635;SDS011;302;50.206;8.196;2023-02-22T16:18:46;28.15;;;25.20;;
635;SDS011;302;50.206;8.196;2023-02-22T16:21:13;27.43;;;24.47;;
635;SDS011;302;50.206;8.196;2023-02-22T16:23:45;27.80;;;25.00;;
635;SDS011;302;50.206;8.196;2023-02-22T16:26:21;28.17;;;25.23;;
635;SDS011;302;50.206;8.196;2023-02-22T16:28:57;24.95;;;21.02;;
635;SDS011;302;50.206;8.196;2023-02-22T16:31:24;29.58;;;26.45;;
635;SDS011;302;50.206;8.196;2023-02-22T16:33:51;30.50;;;27.30;;
635;SDS011;302;50.206;8.196;2023-02-22T16:36:17;29.55;;;26.35;;
635;SDS011;302;50.206;8.196;2023-02-22T16:38:43;29.85;;;26.75;;
635;SDS011;302;50.206;8.196;2023-02-22T16:41:11;31.67;;;28.38;;
635;SDS011;302;50.206;8.196;2023-02-22T16:43:36;32.50;;;29.20;;
635;SDS011;302;50.206;8.196;2023-02-22T16:46:01;31.37;;;28.03;;
635;SDS011;302;50.206;8.196;2023-02-22T16:48:28;29.87;;;26.97;;
635;SDS011;302;50.206;8.196;2023-02-22T16:50:54;30.35;;;27.13;;
635;SDS011;302;50.206;8.196;2023-02-22T16:53:21;31.75;;;28.45;;
635;SDS011;302;50.206;8.196;2023-02-22T16:55:47;34.88;;;29.33;;
635;SDS011;302;50.206;8.196;2023-02-22T16:58:12;33.10;;;29.80;;
635;SDS011;302;50.206;8.196;2023-02-22T17:00:38;32.07;;;28.77;;
635;SDS011;302;50.206;8.196;2023-02-22T17:03:06;29.85;;;26.50;;
635;SDS011;302;50.206;8.196;2023-02-22T17:05:31;31.07;;;27.73;;
635;SDS011;302;50.206;8.196;2023-02-22T17:08:00;30.55;;;27.27;;
635;SDS011;302;50.206;8.196;2023-02-22T17:10:25;29.07;;;26.27;;
635;SDS011;302;50.206;8.196;2023-02-22T17:12:50;31.20;;;27.90;;
635;SDS011;302;50.206;8.196;2023-02-22T17:15:18;29.60;;;26.63;;